Gulf - Port au Port: Past 24 Hour Conditions

 

Grates Cove

03:30 AM NDT 02 August 2014
This table is a summary of hourly weather conditions for the past 24 hours.
Date / Time
(NDT)
Wind(knots) Conditions Visibility(km) Pressure(kPa) Air tempC) Relative humidity(%) Dew pointC) Humidex
02 August 2014
3:30 WSW 19 gust 25 N/A N/A 101.8 21 96 20 28
2:30 WSW 19 gust 25 N/A N/A 101.8 20 98 20 28
1:30 WSW 16 gust 22 N/A N/A 101.9 21 96 20 29
0:30 WSW 11 N/A N/A 101.9 21 95 20 28
01 August 2014
23:30 WSW 15 gust 20 N/A N/A 101.9 21 93 20 29
22:30 WSW 17 gust 24 N/A N/A 102.0 21 92 20 29
21:30 WSW 18 gust 24 N/A N/A 102.0 21 94 20 29
20:30 WSW 19 N/A N/A 102.0 22 93 20 29
19:30 WSW 19 gust 26 N/A N/A 102.0 22 93 20 30
18:30 WSW 18 gust 23 N/A N/A 102.1 21 94 20 29
17:30 WSW 22 gust 27 N/A N/A 102.0 22 90 20 30
16:30 WSW 20 gust 25 N/A N/A 102.1 23 85 21 31
15:30 WSW 19 gust 24 N/A N/A 102.1 23 83 20 31
14:30 WSW 17 gust 24 N/A N/A 102.1 23 82 20 30
13:30 WSW 10 N/A N/A 102.1 23 84 20 31
12:30 WSW 16 gust 21 N/A N/A 102.2 23 79 19 30
11:30 WSW 15 gust 23 N/A N/A 102.2 23 84 20 30
10:30 SW 17 N/A N/A 102.2 23 85 20 31
9:30 WSW 17 gust 23 N/A N/A 102.3 22 89 20 30
8:30 WSW 15 gust 20 N/A N/A 102.2 21 94 20 29
7:30 WSW 19 gust 26 N/A N/A 102.1 21 97 21 29
6:30 WSW 21 gust 26 N/A N/A 102.2 21 99 20 29
5:30 SW 19 gust 26 N/A N/A 102.1 20 100 20 *
4:30 SW 17 gust 22 N/A N/A 102.2 19 100 19 *
3:30 WSW 23 N/A N/A 102.2 19 96 19 *
 
Map of Atlantic - Newfoundland marine weather areas Southwestern Grand Banks - 44138 Banquereau - 44139 Tail of the Bank - 44140 Nickerson Bank - 44251 Northeast Burgeo Bank - 44255 Blanc-Sablon Airport Cap Whittle Chevery Natashquan Airport Heath Point Miscou Island Grand Étang Ingonish Beach North Mountain St.Paul Island J.A. Douglas McCurdy Sydney Airport Charlottetown Airport East Point North Cape Argentia Bonavista Burgeo Cape Race Corner Brook Daniel's Harbour Englee Ferolle Point La Scie Port aux Basques Rocky Harbour Sagona Island St. Anthony Airport St. John's Int'l Airport St. Lawrence Stephenville Airport Twillingate Winterland Wreckhouse Cartwright Airport Mary's Harbour Grates Cove Pool's Island Marticot Island Long Pond Îles de la Madeleine Airport
Legend: buoyBuoy land stationLand Station